sensor_id;sensor_type;location;lat;lon;timestamp;P1;durP1;ratioP1;P2;durP2;ratioP2
11066;SDS011;29763;50.904;5.530;2023-03-14T00:02:10;2.78;;;1.20;;
11066;SDS011;29763;50.904;5.530;2023-03-14T00:04:35;4.32;;;1.48;;
11066;SDS011;29763;50.904;5.530;2023-03-14T00:07:01;4.35;;;1.60;;
11066;SDS011;29763;50.904;5.530;2023-03-14T00:09:27;4.57;;;1.60;;
11066;SDS011;29763;50.904;5.530;2023-03-14T00:11:55;4.43;;;1.52;;
11066;SDS011;29763;50.904;5.530;2023-03-14T00:14:21;3.58;;;1.55;;
11066;SDS011;29763;50.904;5.530;2023-03-14T00:16:46;2.95;;;1.50;;
11066;SDS011;29763;50.904;5.530;2023-03-14T00:19:12;4.57;;;1.67;;
11066;SDS011;29763;50.904;5.530;2023-03-14T00:21:38;4.15;;;1.60;;
11066;SDS011;29763;50.904;5.530;2023-03-14T00:24:04;2.75;;;1.25;;
11066;SDS011;29763;50.904;5.530;2023-03-14T00:26:30;4.03;;;1.35;;
11066;SDS011;29763;50.904;5.530;2023-03-14T00:28:56;4.68;;;1.55;;
11066;SDS011;29763;50.904;5.530;2023-03-14T00:31:22;3.38;;;1.73;;
11066;SDS011;29763;50.904;5.530;2023-03-14T00:33:48;5.88;;;1.75;;
11066;SDS011;29763;50.904;5.530;2023-03-14T00:36:16;4.55;;;1.70;;
11066;SDS011;29763;50.904;5.530;2023-03-14T00:38:46;3.67;;;1.52;;
11066;SDS011;29763;50.904;5.530;2023-03-14T00:41:14;6.95;;;2.00;;
11066;SDS011;29763;50.904;5.530;2023-03-14T00:43:44;4.43;;;1.77;;
11066;SDS011;29763;50.904;5.530;2023-03-14T00:46:11;6.30;;;2.00;;
11066;SDS011;29763;50.904;5.530;2023-03-14T00:48:37;4.20;;;1.80;;
11066;SDS011;29763;50.904;5.530;2023-03-14T00:51:04;7.32;;;2.00;;
11066;SDS011;29763;50.904;5.530;2023-03-14T00:53:31;6.90;;;1.98;;
11066;SDS011;29763;50.904;5.530;2023-03-14T00:56:04;6.03;;;1.90;;
11066;SDS011;29763;50.904;5.530;2023-03-14T00:58:33;4.60;;;1.63;;
11066;SDS011;29763;50.904;5.530;2023-03-14T01:00:59;5.65;;;2.10;;
11066;SDS011;29763;50.904;5.530;2023-03-14T01:03:29;7.13;;;1.90;;
11066;SDS011;29763;50.904;5.530;2023-03-14T01:06:05;3.72;;;1.85;;
11066;SDS011;29763;50.904;5.530;2023-03-14T01:08:32;4.80;;;1.60;;
11066;SDS011;29763;50.904;5.530;2023-03-14T01:10:58;5.22;;;1.77;;
11066;SDS011;29763;50.904;5.530;2023-03-14T01:13:24;5.53;;;1.98;;
11066;SDS011;29763;50.904;5.530;2023-03-14T01:15:49;4.90;;;1.70;;
11066;SDS011;29763;50.904;5.530;2023-03-14T01:18:15;9.10;;;2.10;;
11066;SDS011;29763;50.904;5.530;2023-03-14T01:20:41;8.48;;;1.80;;
11066;SDS011;29763;50.904;5.530;2023-03-14T01:23:07;7.28;;;1.80;;
11066;SDS011;29763;50.904;5.530;2023-03-14T01:25:33;5.05;;;1.90;;
11066;SDS011;29763;50.904;5.530;2023-03-14T01:27:58;4.88;;;1.98;;
11066;SDS011;29763;50.904;5.530;2023-03-14T01:30:25;4.30;;;1.50;;
11066;SDS011;29763;50.904;5.530;2023-03-14T01:32:51;5.78;;;2.13;;
11066;SDS011;29763;50.904;5.530;2023-03-14T01:35:17;2.88;;;1.48;;
11066;SDS011;29763;50.904;5.530;2023-03-14T01:37:42;5.80;;;1.88;;
11066;SDS011;29763;50.904;5.530;2023-03-14T01:40:10;4.82;;;2.03;;
11066;SDS011;29763;50.904;5.530;2023-03-14T01:42:36;6.43;;;1.73;;
11066;SDS011;29763;50.904;5.530;2023-03-14T01:45:02;4.40;;;1.88;;
11066;SDS011;29763;50.904;5.530;2023-03-14T01:47:28;5.35;;;1.70;;
11066;SDS011;29763;50.904;5.530;2023-03-14T01:50:07;5.50;;;1.92;;
11066;SDS011;29763;50.904;5.530;2023-03-14T01:52:36;5.63;;;1.90;;
11066;SDS011;29763;50.904;5.530;2023-03-14T01:55:13;6.35;;;2.03;;
11066;SDS011;29763;50.904;5.530;2023-03-14T01:57:53;6.35;;;1.90;;
11066;SDS011;29763;50.904;5.530;2023-03-14T02:00:24;6.72;;;1.98;;
11066;SDS011;29763;50.904;5.530;2023-03-14T02:02:51;8.20;;;2.70;;
11066;SDS011;29763;50.904;5.530;2023-03-14T02:05:28;6.60;;;2.22;;
11066;SDS011;29763;50.904;5.530;2023-03-14T02:07:58;8.27;;;2.38;;
11066;SDS011;29763;50.904;5.530;2023-03-14T02:10:27;9.35;;;2.45;;
11066;SDS011;29763;50.904;5.530;2023-03-14T02:12:55;11.27;;;2.28;;
11066;SDS011;29763;50.904;5.530;2023-03-14T02:15:24;8.38;;;2.22;;
11066;SDS011;29763;50.904;5.530;2023-03-14T02:17:50;7.05;;;2.25;;
11066;SDS011;29763;50.904;5.530;2023-03-14T02:23:04;7.20;;;2.13;;
11066;SDS011;29763;50.904;5.530;2023-03-14T02:28:45;7.63;;;2.30;;
11066;SDS011;29763;50.904;5.530;2023-03-14T02:31:11;9.23;;;2.25;;
11066;SDS011;29763;50.904;5.530;2023-03-14T02:33:37;6.55;;;2.30;;
11066;SDS011;29763;50.904;5.530;2023-03-14T02:36:08;9.00;;;2.42;;
11066;SDS011;29763;50.904;5.530;2023-03-14T02:38:45;12.05;;;2.47;;
11066;SDS011;29763;50.904;5.530;2023-03-14T02:41:33;8.77;;;2.38;;
11066;SDS011;29763;50.904;5.530;2023-03-14T02:43:59;8.52;;;2.03;;
11066;SDS011;29763;50.904;5.530;2023-03-14T02:46:25;8.80;;;2.40;;
11066;SDS011;29763;50.904;5.530;2023-03-14T02:51:19;7.03;;;2.63;;
11066;SDS011;29763;50.904;5.530;2023-03-14T02:53:46;8.85;;;2.15;;
11066;SDS011;29763;50.904;5.530;2023-03-14T02:56:12;7.00;;;2.05;;
11066;SDS011;29763;50.904;5.530;2023-03-14T02:58:38;4.40;;;1.85;;
11066;SDS011;29763;50.904;5.530;2023-03-14T03:01:04;4.60;;;1.67;;
11066;SDS011;29763;50.904;5.530;2023-03-14T03:03:30;5.85;;;1.80;;
11066;SDS011;29763;50.904;5.530;2023-03-14T03:05:57;6.10;;;1.60;;
11066;SDS011;29763;50.904;5.530;2023-03-14T03:08:23;5.15;;;1.80;;
11066;SDS011;29763;50.904;5.530;2023-03-14T03:10:51;5.47;;;1.67;;
11066;SDS011;29763;50.904;5.530;2023-03-14T03:13:17;5.38;;;1.73;;
11066;SDS011;29763;50.904;5.530;2023-03-14T03:15:44;5.90;;;1.80;;
11066;SDS011;29763;50.904;5.530;2023-03-14T03:18:10;6.50;;;2.03;;
11066;SDS011;29763;50.904;5.530;2023-03-14T03:20:36;7.15;;;2.22;;
11066;SDS011;29763;50.904;5.530;2023-03-14T03:23:02;7.55;;;2.50;;
11066;SDS011;29763;50.904;5.530;2023-03-14T03:25:29;6.38;;;2.30;;
11066;SDS011;29763;50.904;5.530;2023-03-14T03:27:55;7.47;;;2.00;;
11066;SDS011;29763;50.904;5.530;2023-03-14T03:30:22;6.05;;;1.80;;
11066;SDS011;29763;50.904;5.530;2023-03-14T03:32:47;3.05;;;1.40;;
11066;SDS011;29763;50.904;5.530;2023-03-14T03:35:14;4.40;;;1.48;;
11066;SDS011;29763;50.904;5.530;2023-03-14T03:37:40;6.45;;;1.98;;
11066;SDS011;29763;50.904;5.530;2023-03-14T03:40:06;15.25;;;3.45;;
11066;SDS011;29763;50.904;5.530;2023-03-14T03:42:36;8.80;;;2.60;;
11066;SDS011;29763;50.904;5.530;2023-03-14T03:45:02;7.35;;;2.00;;
11066;SDS011;29763;50.904;5.530;2023-03-14T03:47:29;9.45;;;2.40;;
11066;SDS011;29763;50.904;5.530;2023-03-14T03:49:56;5.65;;;1.98;;
11066;SDS011;29763;50.904;5.530;2023-03-14T03:52:23;4.55;;;2.00;;
11066;SDS011;29763;50.904;5.530;2023-03-14T03:54:48;8.80;;;2.45;;
11066;SDS011;29763;50.904;5.530;2023-03-14T03:57:14;5.85;;;2.20;;
11066;SDS011;29763;50.904;5.530;2023-03-14T03:59:40;5.90;;;1.80;;
11066;SDS011;29763;50.904;5.530;2023-03-14T04:02:06;4.35;;;2.03;;
11066;SDS011;29763;50.904;5.530;2023-03-14T04:04:32;7.15;;;1.88;;
11066;SDS011;29763;50.904;5.530;2023-03-14T04:06:58;5.10;;;2.03;;
11066;SDS011;29763;50.904;5.530;2023-03-14T04:09:24;4.10;;;1.70;;
11066;SDS011;29763;50.904;5.530;2023-03-14T04:11:49;4.32;;;1.42;;
11066;SDS011;29763;50.904;5.530;2023-03-14T04:14:15;4.35;;;1.73;;
11066;SDS011;29763;50.904;5.530;2023-03-14T04:16:41;3.42;;;1.52;;
11066;SDS011;29763;50.904;5.530;2023-03-14T04:19:07;3.33;;;1.50;;
11066;SDS011;29763;50.904;5.530;2023-03-14T04:21:33;4.40;;;1.60;;
11066;SDS011;29763;50.904;5.530;2023-03-14T04:23:58;2.10;;;1.08;;
11066;SDS011;29763;50.904;5.530;2023-03-14T04:26:24;3.38;;;1.30;;
11066;SDS011;29763;50.904;5.530;2023-03-14T04:28:50;5.15;;;1.67;;
11066;SDS011;29763;50.904;5.530;2023-03-14T04:31:17;2.80;;;1.20;;
11066;SDS011;29763;50.904;5.530;2023-03-14T04:33:45;4.15;;;1.33;;
11066;SDS011;29763;50.904;5.530;2023-03-14T04:36:11;3.08;;;1.17;;
11066;SDS011;29763;50.904;5.530;2023-03-14T04:38:37;2.30;;;1.10;;
11066;SDS011;29763;50.904;5.530;2023-03-14T04:41:03;2.60;;;1.30;;
11066;SDS011;29763;50.904;5.530;2023-03-14T04:43:29;1.98;;;1.02;;
11066;SDS011;29763;50.904;5.530;2023-03-14T04:45:55;1.85;;;0.95;;
11066;SDS011;29763;50.904;5.530;2023-03-14T04:48:23;3.13;;;2.13;;
11066;SDS011;29763;50.904;5.530;2023-03-14T04:50:49;3.88;;;1.70;;
11066;SDS011;29763;50.904;5.530;2023-03-14T04:53:16;1.60;;;1.38;;
11066;SDS011;29763;50.904;5.530;2023-03-14T04:55:46;2.20;;;1.00;;
11066;SDS011;29763;50.904;5.530;2023-03-14T04:58:16;1.77;;;0.98;;
11066;SDS011;29763;50.904;5.530;2023-03-14T05:00:42;1.73;;;1.10;;
11066;SDS011;29763;50.904;5.530;2023-03-14T05:03:08;2.15;;;1.10;;
11066;SDS011;29763;50.904;5.530;2023-03-14T05:05:33;2.15;;;1.20;;
11066;SDS011;29763;50.904;5.530;2023-03-14T05:08:02;2.65;;;1.10;;
11066;SDS011;29763;50.904;5.530;2023-03-14T05:10:28;2.50;;;1.20;;
11066;SDS011;29763;50.904;5.530;2023-03-14T05:12:54;2.33;;;1.13;;
11066;SDS011;29763;50.904;5.530;2023-03-14T05:15:20;2.58;;;1.15;;
11066;SDS011;29763;50.904;5.530;2023-03-14T05:17:49;2.25;;;0.98;;
11066;SDS011;29763;50.904;5.530;2023-03-14T05:20:15;1.65;;;1.27;;
11066;SDS011;29763;50.904;5.530;2023-03-14T05:22:41;1.92;;;1.08;;
11066;SDS011;29763;50.904;5.530;2023-03-14T05:25:07;2.65;;;1.17;;
11066;SDS011;29763;50.904;5.530;2023-03-14T05:27:34;2.55;;;1.20;;
11066;SDS011;29763;50.904;5.530;2023-03-14T05:30:00;3.15;;;1.52;;
11066;SDS011;29763;50.904;5.530;2023-03-14T05:32:27;1.10;;;1.00;;
11066;SDS011;29763;50.904;5.530;2023-03-14T05:34:53;1.70;;;0.98;;
11066;SDS011;29763;50.904;5.530;2023-03-14T05:37:23;1.38;;;0.80;;
11066;SDS011;29763;50.904;5.530;2023-03-14T05:39:49;1.95;;;0.95;;
11066;SDS011;29763;50.904;5.530;2023-03-14T05:42:14;1.55;;;0.80;;
11066;SDS011;29763;50.904;5.530;2023-03-14T05:44:40;1.40;;;1.00;;
11066;SDS011;29763;50.904;5.530;2023-03-14T05:47:06;2.95;;;1.00;;
11066;SDS011;29763;50.904;5.530;2023-03-14T05:49:32;1.65;;;1.00;;
11066;SDS011;29763;50.904;5.530;2023-03-14T05:51:58;3.22;;;1.10;;
11066;SDS011;29763;50.904;5.530;2023-03-14T05:54:23;3.45;;;0.80;;
11066;SDS011;29763;50.904;5.530;2023-03-14T05:56:49;2.08;;;0.98;;
11066;SDS011;29763;50.904;5.530;2023-03-14T05:59:15;0.98;;;0.93;;
11066;SDS011;29763;50.904;5.530;2023-03-14T06:01:40;3.13;;;1.08;;
11066;SDS011;29763;50.904;5.530;2023-03-14T06:04:06;0.75;;;0.75;;
11066;SDS011;29763;50.904;5.530;2023-03-14T06:06:32;1.40;;;1.20;;
11066;SDS011;29763;50.904;5.530;2023-03-14T06:08:58;2.78;;;0.88;;
11066;SDS011;29763;50.904;5.530;2023-03-14T06:11:23;1.77;;;1.08;;
11066;SDS011;29763;50.904;5.530;2023-03-14T06:13:50;1.40;;;1.08;;
11066;SDS011;29763;50.904;5.530;2023-03-14T06:16:18;3.25;;;1.10;;
11066;SDS011;29763;50.904;5.530;2023-03-14T06:18:44;3.00;;;1.50;;
11066;SDS011;29763;50.904;5.530;2023-03-14T06:21:11;1.92;;;1.40;;
11066;SDS011;29763;50.904;5.530;2023-03-14T06:23:37;2.88;;;1.40;;
11066;SDS011;29763;50.904;5.530;2023-03-14T06:26:06;1.83;;;1.40;;
11066;SDS011;29763;50.904;5.530;2023-03-14T06:28:32;1.65;;;1.10;;
11066;SDS011;29763;50.904;5.530;2023-03-14T06:30:58;2.30;;;1.40;;
11066;SDS011;29763;50.904;5.530;2023-03-14T06:33:25;1.92;;;1.33;;
11066;SDS011;29763;50.904;5.530;2023-03-14T06:35:51;2.83;;;1.20;;
11066;SDS011;29763;50.904;5.530;2023-03-14T06:38:17;3.15;;;1.63;;
11066;SDS011;29763;50.904;5.530;2023-03-14T06:40:48;3.45;;;1.60;;
11066;SDS011;29763;50.904;5.530;2023-03-14T06:43:14;2.90;;;1.42;;
11066;SDS011;29763;50.904;5.530;2023-03-14T06:45:42;4.10;;;2.08;;
11066;SDS011;29763;50.904;5.530;2023-03-14T06:48:08;4.13;;;2.10;;
11066;SDS011;29763;50.904;5.530;2023-03-14T06:50:37;3.40;;;2.00;;
11066;SDS011;29763;50.904;5.530;2023-03-14T06:53:02;2.75;;;2.17;;
11066;SDS011;29763;50.904;5.530;2023-03-14T06:55:28;3.92;;;2.50;;
11066;SDS011;29763;50.904;5.530;2023-03-14T06:57:54;3.33;;;2.33;;
11066;SDS011;29763;50.904;5.530;2023-03-14T07:00:20;3.45;;;2.70;;
11066;SDS011;29763;50.904;5.530;2023-03-14T07:02:46;5.82;;;3.50;;
11066;SDS011;29763;50.904;5.530;2023-03-14T07:05:12;3.22;;;2.63;;
11066;SDS011;29763;50.904;5.530;2023-03-14T07:07:38;3.25;;;2.70;;
11066;SDS011;29763;50.904;5.530;2023-03-14T07:10:04;3.30;;;2.92;;
11066;SDS011;29763;50.904;5.530;2023-03-14T07:12:30;4.85;;;3.13;;
11066;SDS011;29763;50.904;5.530;2023-03-14T07:14:56;3.15;;;2.30;;
11066;SDS011;29763;50.904;5.530;2023-03-14T07:17:22;3.58;;;2.75;;
11066;SDS011;29763;50.904;5.530;2023-03-14T07:19:47;3.83;;;2.30;;
11066;SDS011;29763;50.904;5.530;2023-03-14T07:22:13;4.50;;;2.33;;
11066;SDS011;29763;50.904;5.530;2023-03-14T07:24:39;4.25;;;2.20;;
11066;SDS011;29763;50.904;5.530;2023-03-14T07:27:05;4.82;;;2.00;;
11066;SDS011;29763;50.904;5.530;2023-03-14T07:29:31;3.55;;;2.20;;
11066;SDS011;29763;50.904;5.530;2023-03-14T07:31:56;3.35;;;2.10;;
11066;SDS011;29763;50.904;5.530;2023-03-14T07:34:22;4.38;;;2.20;;
11066;SDS011;29763;50.904;5.530;2023-03-14T07:36:48;3.40;;;2.30;;
11066;SDS011;29763;50.904;5.530;2023-03-14T07:39:17;3.70;;;2.47;;
11066;SDS011;29763;50.904;5.530;2023-03-14T07:41:42;3.22;;;2.50;;
11066;SDS011;29763;50.904;5.530;2023-03-14T07:44:08;3.83;;;2.75;;
11066;SDS011;29763;50.904;5.530;2023-03-14T07:46:34;2.60;;;2.40;;
11066;SDS011;29763;50.904;5.530;2023-03-14T07:49:00;4.10;;;2.78;;
11066;SDS011;29763;50.904;5.530;2023-03-14T07:51:25;3.80;;;2.45;;
11066;SDS011;29763;50.904;5.530;2023-03-14T07:53:51;3.63;;;2.25;;
11066;SDS011;29763;50.904;5.530;2023-03-14T07:56:20;3.88;;;2.25;;
11066;SDS011;29763;50.904;5.530;2023-03-14T07:58:45;2.40;;;2.00;;
11066;SDS011;29763;50.904;5.530;2023-03-14T08:01:11;3.42;;;2.08;;
11066;SDS011;29763;50.904;5.530;2023-03-14T08:03:37;4.60;;;1.90;;
11066;SDS011;29763;50.904;5.530;2023-03-14T08:06:03;2.60;;;1.80;;
11066;SDS011;29763;50.904;5.530;2023-03-14T08:08:29;2.63;;;1.60;;
11066;SDS011;29763;50.904;5.530;2023-03-14T08:10:55;2.33;;;1.20;;
11066;SDS011;29763;50.904;5.530;2023-03-14T08:13:21;1.45;;;1.27;;
11066;SDS011;29763;50.904;5.530;2023-03-14T08:15:51;2.60;;;1.65;;
11066;SDS011;29763;50.904;5.530;2023-03-14T08:18:16;1.58;;;1.40;;
11066;SDS011;29763;50.904;5.530;2023-03-14T08:20:42;2.33;;;1.40;;
11066;SDS011;29763;50.904;5.530;2023-03-14T08:23:08;1.50;;;1.40;;
11066;SDS011;29763;50.904;5.530;2023-03-14T08:25:34;1.70;;;1.50;;
11066;SDS011;29763;50.904;5.530;2023-03-14T08:28:00;2.20;;;1.60;;
11066;SDS011;29763;50.904;5.530;2023-03-14T08:30:26;3.57;;;1.73;;
11066;SDS011;29763;50.904;5.530;2023-03-14T08:32:54;2.28;;;1.55;;
11066;SDS011;29763;50.904;5.530;2023-03-14T08:35:22;3.42;;;1.38;;
11066;SDS011;29763;50.904;5.530;2023-03-14T08:37:49;1.90;;;1.40;;
11066;SDS011;29763;50.904;5.530;2023-03-14T08:40:14;1.83;;;1.50;;
11066;SDS011;29763;50.904;5.530;2023-03-14T08:42:42;3.47;;;1.80;;
11066;SDS011;29763;50.904;5.530;2023-03-14T08:45:08;2.25;;;1.77;;
11066;SDS011;29763;50.904;5.530;2023-03-14T08:47:36;2.72;;;2.00;;
11066;SDS011;29763;50.904;5.530;2023-03-14T08:50:02;2.73;;;1.77;;
11066;SDS011;29763;50.904;5.530;2023-03-14T08:52:30;2.10;;;1.90;;
11066;SDS011;29763;50.904;5.530;2023-03-14T08:55:02;3.72;;;2.20;;
11066;SDS011;29763;50.904;5.530;2023-03-14T08:57:29;2.83;;;2.43;;
11066;SDS011;29763;50.904;5.530;2023-03-14T08:59:55;3.55;;;3.05;;
11066;SDS011;29763;50.904;5.530;2023-03-14T09:02:22;4.63;;;2.78;;
11066;SDS011;29763;50.904;5.530;2023-03-14T09:04:52;3.73;;;2.60;;
11066;SDS011;29763;50.904;5.530;2023-03-14T09:07:18;2.70;;;2.40;;
11066;SDS011;29763;50.904;5.530;2023-03-14T09:09:45;3.70;;;2.40;;
11066;SDS011;29763;50.904;5.530;2023-03-14T09:12:11;4.88;;;2.65;;
11066;SDS011;29763;50.904;5.530;2023-03-14T09:14:37;3.30;;;2.60;;
11066;SDS011;29763;50.904;5.530;2023-03-14T09:17:03;3.90;;;2.70;;
11066;SDS011;29763;50.904;5.530;2023-03-14T09:19:29;2.80;;;2.60;;
11066;SDS011;29763;50.904;5.530;2023-03-14T09:21:55;7.60;;;3.08;;
11066;SDS011;29763;50.904;5.530;2023-03-14T09:24:21;4.72;;;2.67;;
11066;SDS011;29763;50.904;5.530;2023-03-14T09:26:49;3.77;;;2.40;;
11066;SDS011;29763;50.904;5.530;2023-03-14T09:29:15;3.40;;;2.50;;
11066;SDS011;29763;50.904;5.530;2023-03-14T09:31:41;4.63;;;2.63;;
11066;SDS011;29763;50.904;5.530;2023-03-14T09:34:09;3.05;;;2.38;;
11066;SDS011;29763;50.904;5.530;2023-03-14T09:36:35;3.47;;;2.33;;
11066;SDS011;29763;50.904;5.530;2023-03-14T09:39:03;6.43;;;2.65;;
11066;SDS011;29763;50.904;5.530;2023-03-14T09:41:37;3.47;;;2.35;;
11066;SDS011;29763;50.904;5.530;2023-03-14T09:46:43;3.70;;;2.60;;
11066;SDS011;29763;50.904;5.530;2023-03-14T09:51:47;3.92;;;3.15;;
11066;SDS011;29763;50.904;5.530;2023-03-14T09:54:37;3.38;;;3.08;;
11066;SDS011;29763;50.904;5.530;2023-03-14T09:57:16;4.55;;;2.60;;
11066;SDS011;29763;50.904;5.530;2023-03-14T09:59:45;3.38;;;2.50;;
11066;SDS011;29763;50.904;5.530;2023-03-14T10:02:14;5.13;;;3.08;;
11066;SDS011;29763;50.904;5.530;2023-03-14T10:04:41;5.38;;;2.70;;
11066;SDS011;29763;50.904;5.530;2023-03-14T10:07:11;3.28;;;2.08;;
11066;SDS011;29763;50.904;5.530;2023-03-14T10:09:42;4.78;;;2.33;;
11066;SDS011;29763;50.904;5.530;2023-03-14T10:12:09;5.78;;;2.72;;
11066;SDS011;29763;50.904;5.530;2023-03-14T10:14:36;2.08;;;1.88;;
11066;SDS011;29763;50.904;5.530;2023-03-14T10:17:10;2.45;;;1.90;;
11066;SDS011;29763;50.904;5.530;2023-03-14T10:19:49;1.35;;;1.25;;
11066;SDS011;29763;50.904;5.530;2023-03-14T10:22:21;2.10;;;1.60;;
11066;SDS011;29763;50.904;5.530;2023-03-14T10:24:51;2.85;;;1.80;;
11066;SDS011;29763;50.904;5.530;2023-03-14T10:27:28;3.45;;;2.17;;
11066;SDS011;29763;50.904;5.530;2023-03-14T10:30:00;4.47;;;2.30;;
11066;SDS011;29763;50.904;5.530;2023-03-14T10:32:36;3.58;;;1.80;;
11066;SDS011;29763;50.904;5.530;2023-03-14T10:37:48;3.47;;;2.00;;
11066;SDS011;29763;50.904;5.530;2023-03-14T10:40:42;3.35;;;1.92;;
11066;SDS011;29763;50.904;5.530;2023-03-14T10:43:18;3.40;;;1.40;;
11066;SDS011;29763;50.904;5.530;2023-03-14T10:45:56;1.50;;;1.35;;
11066;SDS011;29763;50.904;5.530;2023-03-14T10:48:34;2.97;;;1.55;;
11066;SDS011;29763;50.904;5.530;2023-03-14T10:51:17;3.92;;;1.60;;
11066;SDS011;29763;50.904;5.530;2023-03-14T10:56:37;1.98;;;1.45;;
11066;SDS011;29763;50.904;5.530;2023-03-14T10:59:05;2.42;;;1.50;;
11066;SDS011;29763;50.904;5.530;2023-03-14T11:07:20;1.30;;;1.17;;
11066;SDS011;29763;50.904;5.530;2023-03-14T11:09:59;3.03;;;1.60;;
11066;SDS011;29763;50.904;5.530;2023-03-14T11:15:22;2.60;;;1.40;;
11066;SDS011;29763;50.904;5.530;2023-03-14T11:17:57;3.00;;;1.20;;
11066;SDS011;29763;50.904;5.530;2023-03-14T11:20:45;1.50;;;1.10;;
11066;SDS011;29763;50.904;5.530;2023-03-14T11:23:20;3.20;;;1.30;;
11066;SDS011;29763;50.904;5.530;2023-03-14T11:25:53;2.10;;;1.10;;
11066;SDS011;29763;50.904;5.530;2023-03-14T11:33:38;1.27;;;1.10;;
11066;SDS011;29763;50.904;5.530;2023-03-14T11:36:23;1.13;;;1.00;;
11066;SDS011;29763;50.904;5.530;2023-03-14T11:38:58;1.95;;;1.10;;
11066;SDS011;29763;50.904;5.530;2023-03-14T11:43:53;2.10;;;1.30;;
11066;SDS011;29763;50.904;5.530;2023-03-14T11:46:28;1.67;;;1.50;;
11066;SDS011;29763;50.904;5.530;2023-03-14T11:51:36;3.40;;;2.08;;
11066;SDS011;29763;50.904;5.530;2023-03-14T11:56:48;3.30;;;2.30;;
11066;SDS011;29763;50.904;5.530;2023-03-14T11:59:48;4.07;;;2.17;;
11066;SDS011;29763;50.904;5.530;2023-03-14T12:08:46;2.53;;;1.63;;
11066;SDS011;29763;50.904;5.530;2023-03-14T12:14:03;3.07;;;1.80;;
11066;SDS011;29763;50.904;5.530;2023-03-14T12:16:45;4.88;;;2.10;;
11066;SDS011;29763;50.904;5.530;2023-03-14T12:19:23;4.60;;;2.23;;
11066;SDS011;29763;50.904;5.530;2023-03-14T12:24:25;3.20;;;2.20;;
11066;SDS011;29763;50.904;5.530;2023-03-14T12:26:57;4.38;;;2.47;;
11066;SDS011;29763;50.904;5.530;2023-03-14T12:29:27;4.38;;;2.20;;
11066;SDS011;29763;50.904;5.530;2023-03-14T12:34:32;3.38;;;2.08;;
11066;SDS011;29763;50.904;5.530;2023-03-14T12:39:39;3.63;;;1.80;;
11066;SDS011;29763;50.904;5.530;2023-03-14T12:42:35;1.75;;;1.10;;
11066;SDS011;29763;50.904;5.530;2023-03-14T12:48:10;3.78;;;1.20;;
11066;SDS011;29763;50.904;5.530;2023-03-14T12:50:54;2.45;;;1.10;;
11066;SDS011;29763;50.904;5.530;2023-03-14T12:53:43;4.87;;;1.60;;
11066;SDS011;29763;50.904;5.530;2023-03-14T13:02:00;5.15;;;1.95;;
11066;SDS011;29763;50.904;5.530;2023-03-14T13:04:29;7.80;;;2.20;;
11066;SDS011;29763;50.904;5.530;2023-03-14T13:07:33;4.97;;;1.90;;
11066;SDS011;29763;50.904;5.530;2023-03-14T13:10:22;4.07;;;2.33;;
11066;SDS011;29763;50.904;5.530;2023-03-14T13:13:02;8.48;;;2.50;;
11066;SDS011;29763;50.904;5.530;2023-03-14T13:15:44;7.20;;;2.90;;
11066;SDS011;29763;50.904;5.530;2023-03-14T13:18:13;6.97;;;2.20;;
11066;SDS011;29763;50.904;5.530;2023-03-14T13:20:54;9.23;;;2.80;;
11066;SDS011;29763;50.904;5.530;2023-03-14T13:23:27;8.13;;;2.50;;
11066;SDS011;29763;50.904;5.530;2023-03-14T13:25:55;8.93;;;2.97;;
11066;SDS011;29763;50.904;5.530;2023-03-14T13:28:22;9.77;;;3.10;;
11066;SDS011;29763;50.904;5.530;2023-03-14T13:30:49;10.20;;;2.60;;
11066;SDS011;29763;50.904;5.530;2023-03-14T13:33:21;9.90;;;2.93;;
11066;SDS011;29763;50.904;5.530;2023-03-14T13:35:57;14.57;;;3.13;;
11066;SDS011;29763;50.904;5.530;2023-03-14T13:38:26;11.57;;;3.33;;
11066;SDS011;29763;50.904;5.530;2023-03-14T13:40:55;13.93;;;3.60;;
11066;SDS011;29763;50.904;5.530;2023-03-14T13:43:46;7.60;;;2.70;;
11066;SDS011;29763;50.904;5.530;2023-03-14T13:46:20;8.17;;;2.80;;
11066;SDS011;29763;50.904;5.530;2023-03-14T13:49:06;9.37;;;2.67;;
11066;SDS011;29763;50.904;5.530;2023-03-14T13:51:40;11.20;;;3.17;;
11066;SDS011;29763;50.904;5.530;2023-03-14T13:54:15;9.20;;;3.30;;
11066;SDS011;29763;50.904;5.530;2023-03-14T13:56:43;9.10;;;2.78;;
11066;SDS011;29763;50.904;5.530;2023-03-14T13:59:32;8.67;;;2.73;;
11066;SDS011;29763;50.904;5.530;2023-03-14T14:01:57;12.27;;;3.50;;
11066;SDS011;29763;50.904;5.530;2023-03-14T14:04:25;10.43;;;3.20;;
11066;SDS011;29763;50.904;5.530;2023-03-14T14:07:01;12.63;;;3.47;;
11066;SDS011;29763;50.904;5.530;2023-03-14T14:09:39;10.03;;;2.80;;
11066;SDS011;29763;50.904;5.530;2023-03-14T14:12:16;10.20;;;2.90;;
11066;SDS011;29763;50.904;5.530;2023-03-14T14:14:57;7.17;;;2.60;;
11066;SDS011;29763;50.904;5.530;2023-03-14T14:17:44;10.90;;;3.50;;
11066;SDS011;29763;50.904;5.530;2023-03-14T14:22:57;12.87;;;3.57;;
11066;SDS011;29763;50.904;5.530;2023-03-14T14:25:27;11.37;;;4.13;;
11066;SDS011;29763;50.904;5.530;2023-03-14T14:27:54;16.70;;;4.80;;
11066;SDS011;29763;50.904;5.530;2023-03-14T14:32:47;15.10;;;4.80;;
11066;SDS011;29763;50.904;5.530;2023-03-14T14:35:25;15.53;;;5.17;;
11066;SDS011;29763;50.904;5.530;2023-03-14T14:38:16;13.57;;;3.53;;
11066;SDS011;29763;50.904;5.530;2023-03-14T14:40:45;10.23;;;3.10;;
11066;SDS011;29763;50.904;5.530;2023-03-14T14:43:15;12.03;;;4.00;;
11066;SDS011;29763;50.904;5.530;2023-03-14T14:45:50;10.63;;;3.50;;
11066;SDS011;29763;50.904;5.530;2023-03-14T14:48:24;10.63;;;3.60;;
11066;SDS011;29763;50.904;5.530;2023-03-14T14:50:59;10.52;;;3.03;;
11066;SDS011;29763;50.904;5.530;2023-03-14T14:53:31;9.90;;;2.87;;
11066;SDS011;29763;50.904;5.530;2023-03-14T14:56:18;12.70;;;2.97;;
11066;SDS011;29763;50.904;5.530;2023-03-14T14:58:49;10.20;;;3.40;;
11066;SDS011;29763;50.904;5.530;2023-03-14T15:01:24;9.23;;;3.07;;
11066;SDS011;29763;50.904;5.530;2023-03-14T15:03:58;10.50;;;3.30;;
11066;SDS011;29763;50.904;5.530;2023-03-14T15:06:24;8.07;;;3.23;;
11066;SDS011;29763;50.904;5.530;2023-03-14T15:08:54;8.67;;;3.07;;
11066;SDS011;29763;50.904;5.530;2023-03-14T15:11:21;8.07;;;2.83;;
11066;SDS011;29763;50.904;5.530;2023-03-14T15:13:57;7.73;;;2.87;;
11066;SDS011;29763;50.904;5.530;2023-03-14T15:16:25;9.97;;;3.23;;
11066;SDS011;29763;50.904;5.530;2023-03-14T15:18:54;7.47;;;2.80;;
11066;SDS011;29763;50.904;5.530;2023-03-14T15:21:24;7.50;;;2.53;;
11066;SDS011;29763;50.904;5.530;2023-03-14T15:23:51;7.33;;;2.67;;
11066;SDS011;29763;50.904;5.530;2023-03-14T15:26:21;5.43;;;2.33;;
11066;SDS011;29763;50.904;5.530;2023-03-14T15:28:49;6.70;;;2.60;;
11066;SDS011;29763;50.904;5.530;2023-03-14T15:31:15;6.10;;;2.40;;
11066;SDS011;29763;50.904;5.530;2023-03-14T15:33:42;8.50;;;3.00;;
11066;SDS011;29763;50.904;5.530;2023-03-14T15:36:20;6.80;;;2.50;;
11066;SDS011;29763;50.904;5.530;2023-03-14T15:38:52;7.60;;;2.77;;
11066;SDS011;29763;50.904;5.530;2023-03-14T15:41:18;5.80;;;2.40;;
11066;SDS011;29763;50.904;5.530;2023-03-14T15:43:51;7.80;;;2.90;;
11066;SDS011;29763;50.904;5.530;2023-03-14T15:46:17;8.80;;;2.70;;
11066;SDS011;29763;50.904;5.530;2023-03-14T15:48:44;6.67;;;2.47;;
11066;SDS011;29763;50.904;5.530;2023-03-14T15:51:10;6.23;;;2.30;;
11066;SDS011;29763;50.904;5.530;2023-03-14T15:53:36;5.63;;;2.03;;
11066;SDS011;29763;50.904;5.530;2023-03-14T15:56:04;8.43;;;2.20;;
11066;SDS011;29763;50.904;5.530;2023-03-14T15:58:30;4.13;;;1.80;;
11066;SDS011;29763;50.904;5.530;2023-03-14T16:00:59;5.43;;;1.70;;
11066;SDS011;29763;50.904;5.530;2023-03-14T16:03:27;5.77;;;1.60;;
11066;SDS011;29763;50.904;5.530;2023-03-14T16:05:54;4.00;;;1.50;;
11066;SDS011;29763;50.904;5.530;2023-03-14T16:08:20;5.83;;;2.13;;
11066;SDS011;29763;50.904;5.530;2023-03-14T16:10:47;8.37;;;1.97;;